Time;durP1;ratioP1;P1;durP2;ratioP2;P2;SDS_P1;SDS_P2;PMS_P1;PMS_P2;Temp;Humidity;BMP_temperature;BMP_pressure;BME280_temperature;BME280_humidity;BME280_pressure;Samples;Min_cycle;Max_cycle;Signal;HPM_P1;HPM_P2
2023/04/30 00:00:51;;;;;;;6.60;5.93;;;10.20;99.90;;;;;;5115620;28;20513;-59
2023/04/30 00:03:17;;;;;;;7.60;6.10;;;10.20;99.90;;;;;;5115081;28;20336;-59
2023/04/30 00:05:43;;;;;;;7.10;6.40;;;10.10;99.90;;;;;;5114950;28;20181;-59
2023/04/30 00:08:08;;;;;;;6.22;5.63;;;10.10;99.90;;;;;;5096693;28;20576;-59
2023/04/30 00:10:34;;;;;;;7.43;6.32;;;10.00;99.90;;;;;;5114717;28;20627;-59
2023/04/30 00:13:00;;;;;;;7.68;6.72;;;9.90;99.90;;;;;;5115158;28;20523;-59
2023/04/30 00:15:25;;;;;;;8.30;7.05;;;9.90;99.90;;;;;;5114726;28;20176;-59
2023/04/30 00:17:52;;;;;;;8.05;7.35;;;9.90;99.90;;;;;;5114760;28;20173;-59
2023/04/30 00:20:17;;;;;;;8.05;7.22;;;9.90;99.90;;;;;;5114764;28;20174;-59
2023/04/30 00:22:43;;;;;;;8.90;8.00;;;9.90;99.90;;;;;;5114461;28;20174;-59
2023/04/30 00:25:08;;;;;;;8.75;7.20;;;9.90;99.90;;;;;;5114522;28;20249;-59
2023/04/30 00:27:34;;;;;;;7.63;6.88;;;9.80;99.90;;;;;;5114665;28;20299;-59
2023/04/30 00:30:00;;;;;;;9.05;7.03;;;9.90;99.90;;;;;;5114849;28;20562;-59
2023/04/30 00:32:25;;;;;;;7.57;6.75;;;9.80;99.90;;;;;;5114806;28;20173;-59
2023/04/30 00:34:51;;;;;;;8.20;7.30;;;9.80;99.90;;;;;;5114318;28;20639;-60
2023/04/30 00:37:17;;;;;;;7.43;6.72;;;9.90;99.90;;;;;;5114244;28;20177;-59
2023/04/30 00:39:42;;;;;;;8.02;7.20;;;9.80;99.90;;;;;;5114189;28;20214;-59
2023/04/30 00:42:08;;;;;;;6.78;6.10;;;9.80;99.90;;;;;;5114391;28;20249;-58
2023/04/30 00:44:33;;;;;;;7.55;6.47;;;9.90;99.90;;;;;;5113960;28;20184;-59
2023/04/30 00:46:59;;;;;;;7.47;6.78;;;9.90;99.90;;;;;;5114144;28;20205;-59
2023/04/30 00:49:25;;;;;;;9.77;6.80;;;9.80;99.90;;;;;;5114199;28;20225;-59
2023/04/30 00:51:53;;;;;;;8.05;6.88;;;9.70;99.90;;;;;;5114088;28;20258;-59
2023/04/30 00:54:20;;;;;;;7.35;6.65;;;9.70;99.90;;;;;;5113927;28;20634;-59
2023/04/30 00:56:45;;;;;;;8.68;6.53;;;9.50;99.90;;;;;;5114063;28;20173;-59
2023/04/30 00:59:12;;;;;;;7.40;6.18;;;9.60;99.90;;;;;;5114397;28;20729;-58
2023/04/30 01:01:38;;;;;;;7.50;6.20;;;9.60;99.90;;;;;;5113683;28;20264;-58
2023/04/30 01:04:04;;;;;;;8.32;6.57;;;9.50;99.90;;;;;;5113769;28;20212;-59
2023/04/30 01:06:30;;;;;;;7.00;6.30;;;9.50;99.90;;;;;;5113649;28;20224;-59
2023/04/30 01:08:57;;;;;;;8.73;6.50;;;9.40;99.90;;;;;;5113727;28;20188;-58
2023/04/30 01:11:50;;;;;;;6.97;6.28;;;9.60;99.90;;;;;;5113928;28;20169;-59
2023/04/30 01:14:56;;;;;;;7.97;6.55;;;9.60;99.90;;;;;;5113777;28;20253;-59
2023/04/30 01:17:45;;;;;;;7.20;6.50;;;9.60;99.90;;;;;;5113865;28;20177;-59
2023/04/30 01:20:11;;;;;;;7.57;6.78;;;9.50;99.90;;;;;;5113795;28;20225;-59
2023/04/30 01:23:35;;;;;;;10.57;7.03;;;9.50;99.90;;;;;;5113662;28;20169;-59
2023/04/30 01:26:15;;;;;;;7.80;6.72;;;9.40;99.90;;;;;;5069810;28;20185;-59
2023/04/30 01:28:43;;;;;;;8.10;7.05;;;9.40;99.90;;;;;;5113563;28;20222;-59
2023/04/30 01:31:18;;;;;;;7.82;7.03;;;9.40;99.90;;;;;;5113465;28;20264;-59
2023/04/30 01:33:44;;;;;;;8.32;7.38;;;9.50;99.90;;;;;;5113684;28;20604;-59
2023/04/30 01:36:24;;;;;;;8.10;7.25;;;9.50;99.90;;;;;;5113656;28;20205;-59
2023/04/30 01:39:03;;;;;;;7.85;7.05;;;9.40;99.90;;;;;;5113956;28;20639;-59
2023/04/30 01:41:55;;;;;;;8.15;7.13;;;9.40;99.90;;;;;;5113525;28;20169;-59
2023/04/30 01:44:59;;;;;;;7.90;7.10;;;9.30;99.90;;;;;;5113655;28;20154;-59
2023/04/30 01:47:27;;;;;;;8.18;7.38;;;9.30;99.90;;;;;;5113183;28;20204;-59
2023/04/30 01:49:53;;;;;;;8.23;7.18;;;9.30;99.90;;;;;;5113411;28;20660;-59
2023/04/30 01:52:39;;;;;;;11.07;7.53;;;9.20;99.90;;;;;;5113276;28;20164;-59
2023/04/30 01:55:16;;;;;;;8.23;7.13;;;9.20;99.90;;;;;;5113237;28;20693;-59
2023/04/30 01:57:56;;;;;;;7.65;6.85;;;9.20;99.90;;;;;;5113268;28;20161;-59
2023/04/30 02:00:22;;;;;;;8.10;7.30;;;9.20;99.90;;;;;;5113354;28;20180;-59
2023/04/30 02:02:47;;;;;;;7.55;6.80;;;9.20;99.90;;;;;;5113211;28;20527;-59
2023/04/30 02:05:13;;;;;;;8.73;6.88;;;9.10;99.90;;;;;;5113230;28;20639;-59
2023/04/30 02:07:42;;;;;;;9.07;6.45;;;9.10;99.90;;;;;;5113281;28;20296;-59
2023/04/30 02:10:10;;;;;;;7.55;6.78;;;9.10;99.90;;;;;;5113186;28;20234;-59
2023/04/30 02:12:36;;;;;;;8.02;7.07;;;9.20;99.90;;;;;;5114754;28;20176;-60
2023/04/30 02:15:05;;;;;;;7.78;7.00;;;9.10;99.90;;;;;;5117010;28;20173;-59
2023/04/30 02:17:31;;;;;;;8.10;6.97;;;9.10;99.90;;;;;;5116888;28;20284;-59
2023/04/30 02:19:57;;;;;;;7.75;6.88;;;9.10;99.90;;;;;;5117142;28;20234;-59
2023/04/30 02:22:23;;;;;;;8.13;6.82;;;9.10;99.90;;;;;;5117051;28;20191;-59
2023/04/30 02:24:49;;;;;;;7.78;6.85;;;9.10;99.90;;;;;;5116836;28;20177;-59
2023/04/30 02:27:14;;;;;;;8.13;7.05;;;9.10;99.90;;;;;;5116846;28;20201;-59
2023/04/30 02:29:40;;;;;;;8.25;6.82;;;9.10;99.90;;;;;;5116773;28;20170;-59
2023/04/30 02:32:06;;;;;;;9.48;7.22;;;9.10;99.90;;;;;;5116674;28;20185;-60
2023/04/30 02:34:31;;;;;;;8.35;7.40;;;9.20;99.90;;;;;;5116920;28;20696;-59
2023/04/30 02:36:57;;;;;;;8.45;7.00;;;9.10;99.90;;;;;;5116810;28;20196;-59
2023/04/30 02:39:23;;;;;;;8.65;7.45;;;9.10;99.90;;;;;;5116724;28;20172;-59
2023/04/30 02:41:49;;;;;;;8.10;7.05;;;9.10;99.90;;;;;;5116579;28;20166;-60
2023/04/30 02:44:14;;;;;;;8.48;7.53;;;9.10;99.90;;;;;;5098390;28;20624;-59
2023/04/30 02:46:40;;;;;;;9.73;7.65;;;9.10;99.90;;;;;;5116319;28;20208;-59
2023/04/30 02:49:06;;;;;;;8.35;7.38;;;9.00;99.90;;;;;;5116397;28;20639;-59
2023/04/30 02:51:31;;;;;;;8.40;7.55;;;9.10;99.90;;;;;;5116582;28;20550;-59
2023/04/30 02:53:57;;;;;;;10.43;8.35;;;9.00;99.90;;;;;;5116667;28;20242;-59
2023/04/30 02:56:23;;;;;;;9.68;8.68;;;9.00;99.90;;;;;;5116282;28;20627;-59
2023/04/30 02:58:48;;;;;;;8.80;7.90;;;9.00;99.90;;;;;;5098104;28;20509;-59
2023/04/30 03:01:14;;;;;;;9.02;8.13;;;9.00;99.90;;;;;;5116081;28;20173;-59
2023/04/30 03:03:40;;;;;;;9.05;7.80;;;8.90;99.90;;;;;;5116284;28;20175;-59
2023/04/30 03:06:06;;;;;;;8.95;8.05;;;8.90;99.90;;;;;;5116132;28;20264;-59
2023/04/30 03:08:31;;;;;;;8.52;7.68;;;8.90;99.90;;;;;;5116219;28;20251;-59
2023/04/30 03:10:57;;;;;;;12.00;8.60;;;8.80;99.90;;;;;;5116038;28;20179;-59
2023/04/30 03:13:26;;;;;;;9.20;8.07;;;8.90;99.90;;;;;;5115927;28;20165;-59
2023/04/30 03:15:58;;;;;;;10.77;8.70;;;8.90;99.90;;;;;;5115789;28;20169;-59
2023/04/30 03:18:24;;;;;;;9.50;7.90;;;8.80;99.90;;;;;;5115990;28;20200;-59
2023/04/30 03:20:50;;;;;;;10.52;9.50;;;8.70;99.90;;;;;;5115907;28;20658;-59
2023/04/30 03:23:15;;;;;;;9.32;8.43;;;8.80;99.90;;;;;;5115736;28;20173;-59
2023/04/30 03:25:41;;;;;;;9.63;8.57;;;8.90;99.90;;;;;;5115671;28;20197;-59
2023/04/30 03:28:07;;;;;;;11.00;9.02;;;8.80;99.90;;;;;;5115691;28;20215;-59
2023/04/30 03:30:32;;;;;;;9.73;8.73;;;8.90;99.90;;;;;;5115538;28;20629;-59
2023/04/30 03:32:58;;;;;;;9.27;8.40;;;8.80;99.90;;;;;;5115765;28;20248;-59
2023/04/30 03:35:24;;;;;;;10.00;9.00;;;8.80;99.90;;;;;;5115594;28;20219;-59
2023/04/30 03:37:50;;;;;;;9.75;8.23;;;8.80;99.90;;;;;;5097696;28;20188;-59
2023/04/30 03:40:15;;;;;;;10.07;8.70;;;8.80;99.90;;;;;;5115458;28;20204;-59
2023/04/30 03:42:41;;;;;;;9.07;8.18;;;8.80;99.90;;;;;;5115403;28;20293;-59
2023/04/30 03:45:07;;;;;;;9.82;8.38;;;8.80;99.90;;;;;;5115175;28;20185;-59
2023/04/30 03:47:35;;;;;;;10.27;9.10;;;8.80;99.90;;;;;;5115425;28;20297;-59
2023/04/30 03:50:02;;;;;;;10.02;8.82;;;8.70;99.90;;;;;;5115039;28;20221;-59
2023/04/30 03:52:28;;;;;;;10.80;8.88;;;8.80;99.90;;;;;;5115331;28;20177;-58
2023/04/30 03:54:54;;;;;;;10.77;9.00;;;8.80;99.90;;;;;;5115107;28;20173;-58
2023/04/30 03:57:20;;;;;;;10.55;9.48;;;8.80;99.90;;;;;;5115021;28;20184;-59
2023/04/30 03:59:46;;;;;;;10.95;8.95;;;8.70;99.90;;;;;;5114973;28;20226;-60
2023/04/30 04:02:11;;;;;;;9.95;8.80;;;8.60;99.90;;;;;;5115280;28;20181;-58
2023/04/30 04:04:37;;;;;;;11.88;9.27;;;8.50;99.90;;;;;;5096739;28;20169;-60
2023/04/30 04:07:03;;;;;;;13.57;9.18;;;8.60;99.90;;;;;;5114615;28;20702;-59
2023/04/30 04:09:29;;;;;;;10.57;9.35;;;8.60;99.90;;;;;;5096258;28;20184;-59
2023/04/30 04:11:55;;;;;;;11.98;9.93;;;8.60;99.90;;;;;;5114316;28;20628;-59
2023/04/30 04:14:20;;;;;;;10.50;9.45;;;8.60;99.90;;;;;;5096166;28;20169;-59
2023/04/30 04:16:46;;;;;;;10.90;9.80;;;8.60;99.90;;;;;;5114636;28;20169;-59
2023/04/30 04:19:12;;;;;;;11.73;9.90;;;8.50;99.90;;;;;;5096487;28;20543;-60
2023/04/30 04:21:38;;;;;;;10.32;9.32;;;8.50;99.90;;;;;;5079302;28;20666;-59
2023/04/30 04:24:07;;;;;;;10.57;9.48;;;8.50;99.90;;;;;;5114390;28;20688;-59
2023/04/30 04:26:36;;;;;;;10.52;9.43;;;8.50;99.90;;;;;;5114244;28;20344;-59
2023/04/30 04:29:03;;;;;;;11.65;10.45;;;8.50;99.90;;;;;;5114218;28;20169;-58
2023/04/30 04:31:33;;;;;;;10.57;9.48;;;8.60;99.90;;;;;;5114415;28;20656;-60
2023/04/30 04:33:59;;;;;;;10.93;9.77;;;8.60;99.90;;;;;;5096034;28;20628;-60
2023/04/30 04:36:29;;;;;;;10.55;9.50;;;8.60;99.90;;;;;;5113711;28;20180;-59
2023/04/30 04:38:56;;;;;;;10.85;9.75;;;8.60;99.90;;;;;;5114342;28;20178;-61
2023/04/30 04:41:23;;;;;;;10.52;9.38;;;8.50;99.90;;;;;;5113721;28;20169;-58
2023/04/30 04:43:49;;;;;;;10.23;9.32;;;8.50;99.90;;;;;;5113947;28;20181;-58
2023/04/30 04:46:15;;;;;;;11.15;9.98;;;8.50;99.90;;;;;;5113671;28;20659;-58
2023/04/30 04:48:41;;;;;;;11.32;10.00;;;8.60;99.90;;;;;;5113492;28;20654;-58
2023/04/30 04:51:08;;;;;;;10.90;9.80;;;8.60;99.90;;;;;;5113691;28;20173;-58
2023/04/30 04:53:33;;;;;;;11.35;10.15;;;8.60;99.90;;;;;;5113540;28;20205;-58
2023/04/30 04:55:59;;;;;;;10.68;9.65;;;8.60;99.90;;;;;;5113633;28;20274;-58
2023/04/30 04:58:25;;;;;;;11.88;9.98;;;8.60;99.90;;;;;;5113360;28;20173;-58
2023/04/30 05:00:51;;;;;;;10.77;9.68;;;8.70;99.90;;;;;;5113537;28;20188;-58
2023/04/30 05:03:19;;;;;;;10.45;9.45;;;8.70;99.90;;;;;;5113195;28;20546;-58
2023/04/30 05:05:45;;;;;;;12.07;10.35;;;8.80;99.90;;;;;;5113255;28;20691;-58
2023/04/30 05:08:11;;;;;;;11.60;10.45;;;8.80;99.90;;;;;;5113180;28;20212;-58
2023/04/30 05:10:37;;;;;;;11.20;10.05;;;8.80;99.90;;;;;;5113119;28;20198;-58
2023/04/30 05:13:03;;;;;;;13.20;11.88;;;8.90;99.90;;;;;;5113427;28;20201;-60
2023/04/30 05:15:29;;;;;;;14.50;13.10;;;8.90;99.90;;;;;;5113389;28;20222;-60
2023/04/30 05:17:54;;;;;;;13.23;11.93;;;8.90;99.90;;;;;;5113217;28;20260;-59
2023/04/30 05:20:20;;;;;;;12.68;11.13;;;8.90;99.90;;;;;;5113110;28;20256;-59
2023/04/30 05:22:46;;;;;;;13.77;11.50;;;9.00;99.90;;;;;;5113109;28;20173;-59
2023/04/30 05:25:11;;;;;;;11.38;10.27;;;9.00;99.90;;;;;;5112976;28;20187;-60
2023/04/30 05:27:37;;;;;;;11.63;10.43;;;9.20;99.90;;;;;;5113114;28;20213;-58
2023/04/30 05:30:03;;;;;;;12.43;11.15;;;9.30;99.90;;;;;;5113204;28;20177;-58
2023/04/30 05:32:29;;;;;;;12.43;11.05;;;9.30;99.90;;;;;;5113018;28;20252;-58
2023/04/30 05:34:54;;;;;;;17.10;15.35;;;9.50;99.90;;;;;;5112712;28;20266;-59
2023/04/30 05:37:21;;;;;;;13.65;12.10;;;9.70;99.90;;;;;;5112849;28;20173;-58
2023/04/30 05:39:47;;;;;;;12.93;11.63;;;9.70;99.90;;;;;;5112684;28;20201;-58
2023/04/30 05:42:13;;;;;;;11.80;10.60;;;9.90;99.90;;;;;;5112275;28;20222;-58
2023/04/30 05:44:40;;;;;;;12.35;9.80;;;10.10;99.90;;;;;;5094131;28;20173;-58
2023/04/30 05:47:05;;;;;;;11.88;10.75;;;10.20;99.90;;;;;;5113241;28;20205;-58
2023/04/30 05:49:31;;;;;;;12.98;11.18;;;10.20;99.90;;;;;;5115937;28;20278;-58
2023/04/30 05:51:57;;;;;;;12.40;11.18;;;10.30;99.90;;;;;;5116636;28;20193;-58
2023/04/30 05:54:22;;;;;;;12.40;11.20;;;10.40;99.90;;;;;;5116814;28;20169;-60
2023/04/30 05:56:48;;;;;;;17.50;15.15;;;10.50;99.90;;;;;;5117022;28;20177;-58
2023/04/30 05:59:14;;;;;;;12.35;10.93;;;10.60;99.90;;;;;;5117297;28;20180;-58
2023/04/30 06:01:40;;;;;;;12.63;11.32;;;10.70;99.90;;;;;;5116794;28;20177;-60
2023/04/30 06:04:07;;;;;;;14.55;13.02;;;10.80;99.90;;;;;;5114914;28;20196;-60
2023/04/30 06:06:32;;;;;;;11.90;10.65;;;10.90;99.90;;;;;;5113965;28;20682;-60
2023/04/30 06:08:58;;;;;;;13.45;11.38;;;11.10;99.90;;;;;;5115556;28;20169;-60
2023/04/30 06:11:24;;;;;;;12.20;10.88;;;11.20;99.90;;;;;;5116869;28;20173;-60
2023/04/30 06:13:50;;;;;;;11.50;10.30;;;11.40;99.90;;;;;;5116833;28;20181;-60
2023/04/30 06:16:16;;;;;;;12.82;11.02;;;11.40;99.90;;;;;;5116483;28;20165;-59
2023/04/30 06:18:41;;;;;;;11.23;10.02;;;11.60;99.90;;;;;;5116523;28;20170;-60
2023/04/30 06:21:07;;;;;;;11.93;10.68;;;11.80;99.90;;;;;;5116462;28;20178;-59
2023/04/30 06:23:33;;;;;;;11.70;10.60;;;12.00;99.90;;;;;;5116294;28;20174;-59
2023/04/30 06:25:58;;;;;;;13.45;10.65;;;12.00;99.90;;;;;;5116459;28;20192;-60
2023/04/30 06:28:24;;;;;;;12.57;10.85;;;12.20;99.90;;;;;;5116304;28;20209;-60
2023/04/30 06:30:51;;;;;;;12.68;10.30;;;12.50;99.90;;;;;;5116222;28;20222;-59
2023/04/30 06:33:16;;;;;;;11.70;10.48;;;12.50;99.90;;;;;;5116232;28;20173;-59
2023/04/30 06:35:42;;;;;;;11.15;9.93;;;12.50;99.90;;;;;;5116180;28;20532;-58
2023/04/30 06:38:08;;;;;;;11.20;10.02;;;12.70;99.90;;;;;;5115988;28;20181;-60
2023/04/30 06:40:34;;;;;;;12.75;11.45;;;12.90;99.90;;;;;;5116004;28;20208;-60
2023/04/30 06:43:00;;;;;;;13.40;10.50;;;13.20;99.90;;;;;;5116223;28;20181;-60
2023/04/30 06:45:25;;;;;;;13.55;11.07;;;13.20;99.90;;;;;;5116043;28;20573;-59
2023/04/30 06:47:52;;;;;;;11.07;9.85;;;13.00;99.90;;;;;;5115907;28;20679;-59
2023/04/30 06:50:18;;;;;;;11.60;10.15;;;13.20;99.90;;;;;;5115235;28;20229;-60
2023/04/30 06:52:43;;;;;;;11.35;9.82;;;13.30;99.90;;;;;;5115791;28;20218;-60
2023/04/30 06:55:10;;;;;;;11.80;10.63;;;13.40;99.90;;;;;;5115808;28;20581;-60
2023/04/30 06:57:36;;;;;;;11.57;10.38;;;13.40;99.90;;;;;;5115349;28;20184;-58
2023/04/30 07:00:04;;;;;;;12.07;10.77;;;13.20;99.90;;;;;;5115688;28;20208;-59
2023/04/30 07:02:30;;;;;;;10.70;9.60;;;13.30;99.90;;;;;;5115610;28;20173;-60
2023/04/30 07:04:56;;;;;;;11.63;10.43;;;13.30;99.90;;;;;;5115570;28;20230;-57
2023/04/30 07:07:22;;;;;;;11.57;10.38;;;13.40;99.90;;;;;;5097174;28;20209;-58
2023/04/30 07:09:47;;;;;;;13.18;10.50;;;13.50;99.90;;;;;;5097376;28;20180;-58
2023/04/30 07:12:13;;;;;;;12.57;10.45;;;13.50;99.90;;;;;;5115691;28;20177;-57
2023/04/30 07:14:39;;;;;;;10.65;9.55;;;13.50;99.90;;;;;;5097145;28;20589;-58
2023/04/30 07:17:04;;;;;;;11.50;9.98;;;13.40;99.90;;;;;;5097185;28;20180;-58
2023/04/30 07:19:31;;;;;;;11.27;10.18;;;13.50;99.90;;;;;;5115189;28;20696;-58
2023/04/30 07:21:57;;;;;;;11.38;10.25;;;13.60;99.90;;;;;;5115251;28;20170;-58
2023/04/30 07:24:22;;;;;;;12.02;10.63;;;13.60;99.90;;;;;;5115214;28;20265;-58
2023/04/30 07:26:48;;;;;;;14.05;10.85;;;13.90;99.90;;;;;;5115246;28;20201;-58
2023/04/30 07:29:14;;;;;;;12.32;11.00;;;13.90;99.90;;;;;;5115180;28;20196;-58
2023/04/30 07:31:39;;;;;;;14.40;10.55;;;13.90;99.90;;;;;;5115036;28;20177;-58
2023/04/30 07:34:05;;;;;;;11.93;10.60;;;13.80;99.90;;;;;;5115125;28;20531;-58
2023/04/30 07:36:31;;;;;;;12.02;10.73;;;13.90;99.90;;;;;;5114867;28;20181;-58
2023/04/30 07:38:57;;;;;;;12.90;11.30;;;14.10;99.90;;;;;;5115155;28;20171;-58
2023/04/30 07:41:24;;;;;;;11.93;10.40;;;14.20;99.90;;;;;;5115191;28;20181;-58
2023/04/30 07:43:49;;;;;;;11.23;10.05;;;14.40;99.90;;;;;;5114992;28;20492;-58
2023/04/30 07:46:15;;;;;;;12.45;10.55;;;14.50;99.90;;;;;;5114847;28;20170;-58
2023/04/30 07:48:41;;;;;;;11.98;10.60;;;14.60;99.90;;;;;;5114637;28;20263;-58
2023/04/30 07:51:06;;;;;;;12.27;10.98;;;14.40;99.90;;;;;;5114785;28;20265;-58
2023/04/30 07:53:32;;;;;;;11.50;10.30;;;14.50;99.90;;;;;;5096384;28;20198;-58
2023/04/30 07:55:58;;;;;;;12.23;10.95;;;14.70;99.90;;;;;;5114796;28;20252;-58
2023/04/30 07:58:23;;;;;;;12.05;10.75;;;14.80;99.90;;;;;;5114685;28;20181;-58
2023/04/30 08:00:49;;;;;;;11.70;10.50;;;14.90;99.90;;;;;;5096378;28;20177;-58
2023/04/30 08:03:15;;;;;;;12.32;11.02;;;14.80;99.90;;;;;;5114418;28;20547;-58
2023/04/30 08:05:40;;;;;;;12.93;10.43;;;15.20;99.90;;;;;;5114458;28;20256;-58
2023/04/30 08:08:06;;;;;;;11.68;10.48;;;15.20;99.90;;;;;;5096893;28;20220;-58
2023/04/30 08:10:32;;;;;;;11.30;10.00;;;15.50;99.90;;;;;;5114132;28;20184;-58
2023/04/30 08:12:58;;;;;;;11.52;9.73;;;15.60;99.90;;;;;;5114827;28;20173;-58
2023/04/30 08:15:24;;;;;;;12.13;10.75;;;15.70;99.90;;;;;;5114769;28;20234;-58
2023/04/30 08:17:50;;;;;;;13.20;10.75;;;15.70;99.90;;;;;;5114818;28;20208;-58
2023/04/30 08:20:16;;;;;;;11.18;9.98;;;15.60;99.90;;;;;;5114600;28;20644;-58
2023/04/30 08:22:43;;;;;;;11.07;9.95;;;15.60;99.90;;;;;;5114779;28;20258;-58
2023/04/30 08:25:12;;;;;;;12.35;10.25;;;15.70;99.90;;;;;;5096592;28;20174;-58
2023/04/30 08:27:38;;;;;;;11.23;10.13;;;15.70;99.90;;;;;;5114562;28;20243;-58
2023/04/30 08:30:06;;;;;;;10.75;9.65;;;16.00;99.90;;;;;;5114551;28;20205;-58
2023/04/30 08:32:35;;;;;;;11.88;10.07;;;16.20;99.90;;;;;;5096061;28;20520;-58
2023/04/30 08:35:06;;;;;;;11.73;9.82;;;16.20;99.90;;;;;;5114250;28;20549;-58
2023/04/30 08:37:32;;;;;;;11.52;10.32;;;16.50;99.90;;;;;;5114552;28;20180;-59
2023/04/30 08:39:58;;;;;;;11.00;9.77;;;16.70;99.90;;;;;;5114420;28;20169;-60
2023/04/30 08:42:34;;;;;;;10.20;9.20;;;16.60;99.90;;;;;;5114177;28;20177;-59
2023/04/30 08:45:02;;;;;;;12.05;10.20;;;16.50;99.90;;;;;;5114366;28;20161;-60
2023/04/30 08:47:28;;;;;;;11.32;9.68;;;16.80;99.90;;;;;;5113937;28;20216;-59
2023/04/30 08:49:54;;;;;;;11.20;10.00;;;16.90;99.90;;;;;;5114088;28;20217;-59
2023/04/30 08:52:21;;;;;;;10.02;9.02;;;16.80;99.90;;;;;;5114267;28;20693;-58
2023/04/30 08:54:47;;;;;;;10.57;9.48;;;16.80;99.90;;;;;;5114135;28;20177;-58
2023/04/30 08:57:13;;;;;;;10.27;9.20;;;16.90;99.90;;;;;;5114055;28;20177;-58
2023/04/30 08:59:39;;;;;;;10.93;9.70;;;17.10;99.90;;;;;;5113946;28;20180;-58
2023/04/30 09:02:05;;;;;;;9.93;8.93;;;17.20;99.90;;;;;;5113851;28;20196;-58
2023/04/30 09:04:30;;;;;;;11.98;8.95;;;17.30;99.90;;;;;;5114026;28;20620;-58
2023/04/30 09:06:58;;;;;;;10.40;8.43;;;17.30;99.90;;;;;;5114013;28;20563;-58
2023/04/30 09:09:28;;;;;;;10.23;8.63;;;17.40;99.90;;;;;;5113864;28;20272;-58
2023/04/30 09:12:17;;;;;;;9.65;8.30;;;17.40;99.90;;;;;;5114035;28;20203;-58
2023/04/30 09:15:09;;;;;;;11.75;8.40;;;17.50;99.90;;;;;;5113701;28;20201;-57
2023/04/30 09:17:34;;;;;;;10.98;8.82;;;17.70;99.90;;;;;;5113884;28;20181;-58
2023/04/30 09:20:10;;;;;;;10.13;7.78;;;18.00;99.90;;;;;;5113725;28;20219;-58
2023/04/30 09:22:38;;;;;;;10.65;7.90;;;17.90;99.90;;;;;;5113567;28;20483;-57
2023/04/30 09:25:05;;;;;;;8.93;8.00;;;18.00;99.90;;;;;;5113449;28;20220;-59
2023/04/30 09:27:31;;;;;;;9.43;7.63;;;18.30;99.90;;;;;;5113710;28;20205;-60
2023/04/30 09:30:04;;;;;;;10.38;8.70;;;18.20;99.90;;;;;;5113678;28;20185;-57
2023/04/30 09:32:30;;;;;;;9.70;8.20;;;18.00;99.90;;;;;;5110983;28;20201;-59
2023/04/30 09:34:56;;;;;;;11.02;8.70;;;18.20;99.90;;;;;;5113573;28;20169;-58
2023/04/30 09:37:33;;;;;;;9.25;8.30;;;18.10;99.90;;;;;;5113581;28;20592;-59
2023/04/30 09:39:59;;;;;;;8.70;7.75;;;18.30;99.90;;;;;;5113838;28;20504;-58
2023/04/30 09:42:25;;;;;;;9.45;7.85;;;18.60;99.90;;;;;;5113590;28;20172;-59
2023/04/30 09:44:52;;;;;;;9.95;8.05;;;18.60;99.90;;;;;;5113591;28;20640;-58
2023/04/30 09:47:19;;;;;;;9.02;7.57;;;18.40;99.90;;;;;;5113284;28;20223;-59
2023/04/30 09:49:53;;;;;;;9.52;7.25;;;18.60;99.90;;;;;;5113120;28;20609;-59
2023/04/30 09:52:19;;;;;;;16.42;6.55;;;18.70;99.90;;;;;;5113273;28;20252;-58
2023/04/30 09:54:46;;;;;;;6.47;5.88;;;18.70;99.90;;;;;;5113478;28;20264;-58
2023/04/30 09:57:14;;;;;;;7.63;6.82;;;19.00;99.40;;;;;;5113545;28;20177;-58
2023/04/30 09:59:44;;;;;;;8.20;7.00;;;19.00;98.80;;;;;;5113286;28;20173;-58
2023/04/30 10:02:14;;;;;;;7.60;6.13;;;18.90;99.00;;;;;;5113307;28;20165;-59
2023/04/30 10:04:42;;;;;;;6.97;6.28;;;18.80;98.50;;;;;;5113113;28;20174;-60
2023/04/30 10:07:12;;;;;;;6.30;5.60;;;18.90;99.20;;;;;;5113593;28;20203;-59
2023/04/30 10:09:56;;;;;;;7.78;5.38;;;19.30;97.70;;;;;;5113364;28;20170;-56
2023/04/30 10:12:29;;;;;;;6.28;5.25;;;19.10;95.70;;;;;;5113330;28;20266;-60
2023/04/30 10:15:02;;;;;;;6.10;5.32;;;18.80;96.10;;;;;;5113081;28;20174;-57
2023/04/30 10:17:30;;;;;;;6.70;5.00;;;18.90;97.20;;;;;;5113338;28;20253;-57
2023/04/30 10:20:00;;;;;;;6.68;5.47;;;19.10;97.00;;;;;;5113253;28;20169;-57
2023/04/30 10:22:27;;;;;;;5.75;4.30;;;19.00;95.40;;;;;;5113320;28;20200;-57
2023/04/30 10:24:53;;;;;;;4.85;4.35;;;18.80;95.00;;;;;;5112987;28;20224;-59
2023/04/30 10:27:19;;;;;;;5.82;4.80;;;18.90;95.90;;;;;;5113108;28;20551;-57
2023/04/30 10:29:45;;;;;;;4.40;4.00;;;18.90;94.20;;;;;;5112869;28;20170;-60
2023/04/30 10:32:12;;;;;;;5.82;4.25;;;19.00;96.40;;;;;;5113146;28;20166;-59
2023/04/30 10:34:54;;;;;;;4.95;3.67;;;19.10;94.80;;;;;;5116108;28;20180;-57
2023/04/30 10:37:28;;;;;;;4.47;4.07;;;19.30;94.20;;;;;;5116706;28;20173;-60
2023/04/30 10:39:55;;;;;;;4.10;3.70;;;19.00;94.80;;;;;;5116777;28;20538;-57
2023/04/30 10:42:21;;;;;;;6.22;4.30;;;19.10;95.40;;;;;;5116420;28;20257;-57
2023/04/30 10:44:47;;;;;;;4.32;3.92;;;19.40;95.60;;;;;;5116678;28;20690;-59
2023/04/30 10:47:15;;;;;;;3.70;3.35;;;19.40;92.90;;;;;;5116636;28;20571;-56
2023/04/30 10:49:47;;;;;;;6.43;4.00;;;19.40;92.70;;;;;;5116064;28;20221;-57
2023/04/30 10:52:13;;;;;;;4.28;3.35;;;19.40;93.50;;;;;;5116610;28;20547;-57
2023/04/30 10:54:40;;;;;;;4.55;3.53;;;19.50;93.10;;;;;;5116225;28;20161;-57
2023/04/30 10:57:14;;;;;;;5.28;3.85;;;19.50;93.10;;;;;;5116644;28;20193;-57
2023/04/30 10:59:45;;;;;;;3.53;3.20;;;19.40;92.70;;;;;;5116427;28;20622;-60
2023/04/30 11:02:14;;;;;;;3.85;3.00;;;19.40;92.70;;;;;;5116186;28;20173;-57
2023/04/30 11:05:05;;;;;;;3.15;2.58;;;19.60;93.00;;;;;;5116077;28;20177;-57
2023/04/30 11:07:30;;;;;;;2.80;2.55;;;19.70;91.10;;;;;;5116230;28;20197;-57
2023/04/30 11:09:57;;;;;;;3.28;2.65;;;19.50;91.50;;;;;;5116239;28;20187;-57
2023/04/30 11:12:28;;;;;;;4.32;2.63;;;19.50;90.10;;;;;;5116183;28;20165;-57
2023/04/30 11:15:01;;;;;;;2.97;2.60;;;19.60;90.50;;;;;;5115938;28;20640;-57
2023/04/30 11:17:27;;;;;;;2.92;2.60;;;19.70;90.10;;;;;;5115827;28;20184;-57
2023/04/30 11:19:57;;;;;;;2.45;2.25;;;19.80;89.60;;;;;;5115653;28;20177;-58
2023/04/30 11:22:24;;;;;;;2.55;2.30;;;19.90;88.90;;;;;;5115869;28;20513;-58
2023/04/30 11:25:03;;;;;;;2.88;2.30;;;19.60;84.30;;;;;;5115982;28;20166;-58
2023/04/30 11:27:31;;;;;;;3.75;2.25;;;19.50;88.50;;;;;;5115723;28;20199;-58
2023/04/30 11:29:57;;;;;;;3.05;2.55;;;19.80;89.80;;;;;;5115606;28;20662;-58
2023/04/30 11:32:26;;;;;;;3.03;2.72;;;20.00;89.50;;;;;;5115597;28;20170;-58
2023/04/30 11:34:53;;;;;;;2.17;1.92;;;20.00;86.80;;;;;;5115670;28;20230;-58
2023/04/30 11:37:29;;;;;;;2.42;2.17;;;20.30;89.40;;;;;;5115604;28;20620;-58
2023/04/30 11:39:58;;;;;;;2.65;2.10;;;20.60;89.80;;;;;;5115708;28;20165;-58
2023/04/30 11:42:24;;;;;;;2.72;2.40;;;20.70;89.20;;;;;;5115464;28;20573;-58
2023/04/30 11:44:49;;;;;;;3.35;2.42;;;20.50;86.50;;;;;;5114100;28;20170;-58
2023/04/30 11:47:15;;;;;;;2.67;2.35;;;20.40;85.50;;;;;;5115436;28;20227;-58
2023/04/30 11:49:42;;;;;;;2.55;2.05;;;20.30;86.80;;;;;;5115305;28;20236;-58
2023/04/30 11:52:08;;;;;;;2.67;1.90;;;20.50;87.30;;;;;;5115518;28;20215;-58
2023/04/30 11:54:37;;;;;;;2.90;2.58;;;20.40;84.20;;;;;;5115277;28;20266;-57
2023/04/30 11:57:03;;;;;;;2.63;2.05;;;20.40;85.50;;;;;;5115082;28;20654;-57
2023/04/30 11:59:30;;;;;;;2.72;2.25;;;20.40;87.50;;;;;;5115142;28;20181;-58
2023/04/30 12:01:57;;;;;;;2.20;2.00;;;20.40;87.20;;;;;;5115236;28;20185;-57
2023/04/30 12:04:22;;;;;;;2.10;1.90;;;20.30;86.90;;;;;;5115240;28;20166;-57
2023/04/30 12:06:48;;;;;;;2.25;2.05;;;20.40;86.70;;;;;;5115206;28;20204;-57
2023/04/30 12:09:14;;;;;;;3.35;2.40;;;20.30;82.30;;;;;;5114925;28;20244;-58
2023/04/30 12:11:40;;;;;;;3.72;1.95;;;20.30;84.20;;;;;;5114830;28;20169;-58
2023/04/30 12:14:11;;;;;;;3.45;1.70;;;20.20;84.70;;;;;;5114641;28;20227;-58
2023/04/30 12:16:48;;;;;;;1.70;1.60;;;20.10;84.20;;;;;;5115407;28;20191;-57
2023/04/30 12:19:15;;;;;;;1.55;1.45;;;20.20;85.10;;;;;;5114690;28;20173;-58
2023/04/30 12:21:44;;;;;;;2.03;1.67;;;20.30;83.90;;;;;;5114654;28;20169;-59
2023/04/30 12:24:13;;;;;;;3.17;2.10;;;20.40;85.50;;;;;;5114567;28;20647;-58
2023/04/30 12:26:40;;;;;;;1.70;1.60;;;20.50;83.70;;;;;;5114566;28;20209;-58
2023/04/30 12:29:15;;;;;;;2.75;1.50;;;20.50;83.30;;;;;;5114993;28;20185;-58
2023/04/30 12:31:41;;;;;;;2.67;1.67;;;20.40;83.00;;;;;;5114696;28;20178;-58
2023/04/30 12:34:09;;;;;;;1.85;1.67;;;20.40;84.10;;;;;;5114523;28;20222;-58
2023/04/30 12:36:37;;;;;;;1.73;1.45;;;20.40;85.20;;;;;;5114479;28;20169;-58
2023/04/30 12:39:09;;;;;;;1.95;1.63;;;20.40;83.40;;;;;;5114218;28;20528;-58
2023/04/30 12:41:44;;;;;;;1.60;1.50;;;20.60;82.70;;;;;;5114875;28;20169;-58
2023/04/30 12:44:21;;;;;;;1.30;1.20;;;20.60;83.00;;;;;;5114426;28;20215;-58
2023/04/30 12:46:49;;;;;;;1.30;1.10;;;20.50;84.20;;;;;;5114069;28;20228;-58